createdAt,value
2022-08-17T00:02:26.424Z,3.97
2022-08-17T00:04:55.600Z,4.38
2022-08-17T00:07:23.289Z,4.32
2022-08-17T00:09:50.515Z,5.07
2022-08-17T00:12:42.845Z,4.05
2022-08-17T00:15:10.692Z,4.20
2022-08-17T00:17:38.167Z,4.18
2022-08-17T00:20:06.421Z,4.47
2022-08-17T00:22:36.483Z,4.55
2022-08-17T00:25:09.057Z,4.47
2022-08-17T00:27:36.947Z,4.43
2022-08-17T00:30:06.689Z,4.45
2022-08-17T00:33:14.542Z,4.40
2022-08-17T00:35:30.636Z,5.25
2022-08-17T00:37:57.909Z,5.47
2022-08-17T00:40:25.246Z,5.07
2022-08-17T00:42:53.518Z,5.30
2022-08-17T00:45:23.092Z,4.68
2022-08-17T00:47:50.346Z,5.00
2022-08-17T00:50:19.194Z,3.85
2022-08-17T00:52:56.051Z,5.28
2022-08-17T00:55:25.428Z,4.55
2022-08-17T00:57:58.599Z,4.65
2022-08-17T01:03:10.018Z,5.38
2022-08-17T01:05:42.192Z,4.72
2022-08-17T01:08:13.459Z,5.63
2022-08-17T01:10:58.765Z,5.18
2022-08-17T01:13:42.577Z,5.45
2022-08-17T01:16:28.334Z,6.88
2022-08-17T01:19:01.030Z,5.25
2022-08-17T01:21:43.941Z,5.53
2022-08-17T01:24:11.175Z,5.70
2022-08-17T01:26:43.328Z,5.70
2022-08-17T01:29:12.660Z,4.57
2022-08-17T01:31:45.515Z,5.30
2022-08-17T01:34:15.859Z,5.13
2022-08-17T01:36:45.899Z,4.95
2022-08-17T01:39:30.515Z,5.30
2022-08-17T01:42:11.055Z,5.15
2022-08-17T01:44:41.272Z,5.78
2022-08-17T01:47:08.485Z,4.88
2022-08-17T01:49:35.765Z,4.95
2022-08-17T01:52:10.942Z,5.13
2022-08-17T01:54:41.441Z,6.43
2022-08-17T01:57:09.259Z,5.72
2022-08-17T01:59:37.060Z,5.03
2022-08-17T02:02:07.282Z,5.38
2022-08-17T02:04:35.175Z,5.50
2022-08-17T02:07:02.404Z,5.38
2022-08-17T02:09:31.491Z,5.00
2022-08-17T02:12:38.300Z,5.68
2022-08-17T02:14:48.031Z,5.20
2022-08-17T02:17:15.256Z,5.30
2022-08-17T02:19:42.667Z,5.82
2022-08-17T02:22:10.384Z,5.10
2022-08-17T02:24:59.635Z,5.90
2022-08-17T02:27:26.411Z,5.10
2022-08-17T02:29:53.763Z,5.65
2022-08-17T02:32:28.040Z,5.68
2022-08-17T02:34:57.466Z,4.93
2022-08-17T02:37:26.601Z,5.20
2022-08-17T02:39:54.618Z,4.93
2022-08-17T02:42:31.502Z,4.78
2022-08-17T02:45:00.646Z,4.82
2022-08-17T02:47:28.048Z,5.07
2022-08-17T02:49:56.141Z,5.32
2022-08-17T02:52:53.520Z,5.03
2022-08-17T02:55:17.383Z,5.00
2022-08-17T02:57:45.622Z,5.00
2022-08-17T03:00:18.876Z,4.68
2022-08-17T03:05:15.763Z,4.40
2022-08-17T03:07:43.132Z,4.65
2022-08-17T03:10:11.693Z,4.28
2022-08-17T03:12:41.688Z,5.43
2022-08-17T03:15:12.873Z,5.50
2022-08-17T03:17:40.170Z,6.00
2022-08-17T03:20:08.554Z,4.88
2022-08-17T03:22:38.618Z,4.97
2022-08-17T03:25:10.743Z,5.10
2022-08-17T03:27:39.382Z,5.20
2022-08-17T03:30:10.709Z,5.70
2022-08-17T03:32:39.964Z,5.05
2022-08-17T03:35:08.781Z,4.47
2022-08-17T03:37:36.785Z,4.75
2022-08-17T03:40:07.575Z,5.80
2022-08-17T03:42:38.089Z,5.05
2022-08-17T03:45:38.491Z,4.38
2022-08-17T03:48:35.627Z,5.05
2022-08-17T03:51:21.642Z,5.38
2022-08-17T03:54:13.346Z,6.07
2022-08-17T03:56:45.104Z,5.68
2022-08-17T03:59:20.846Z,5.50
2022-08-17T04:01:53.364Z,4.82
2022-08-17T04:04:27.713Z,5.00
2022-08-17T04:06:55.715Z,5.00
2022-08-17T04:09:22.988Z,5.10
2022-08-17T04:11:50.221Z,4.90
2022-08-17T04:14:17.448Z,4.93
2022-08-17T04:16:44.708Z,5.20
2022-08-17T04:19:12.289Z,5.80
2022-08-17T04:21:39.960Z,5.97
2022-08-17T04:24:07.803Z,5.38
2022-08-17T04:26:52.226Z,5.40
2022-08-17T04:29:22.692Z,4.72
2022-08-17T04:31:50.273Z,5.32
2022-08-17T04:34:19.574Z,5.03
2022-08-17T04:36:50.098Z,4.68
2022-08-17T04:39:17.856Z,5.35
2022-08-17T04:42:03.385Z,4.75
2022-08-17T04:44:37.795Z,5.13
2022-08-17T04:47:07.155Z,5.15
2022-08-17T04:49:38.049Z,5.40
2022-08-17T04:52:05.336Z,4.88
2022-08-17T04:54:32.639Z,4.72
2022-08-17T04:56:59.901Z,6.18
2022-08-17T04:59:27.132Z,6.40
2022-08-17T05:01:54.728Z,5.18
2022-08-17T05:04:34.443Z,5.22
2022-08-17T05:07:04.574Z,4.88
2022-08-17T05:09:32.113Z,4.50
2022-08-17T05:12:02.651Z,5.22
2022-08-17T05:14:32.328Z,5.30
2022-08-17T05:17:02.037Z,4.47
2022-08-17T05:19:35.341Z,5.00
2022-08-17T05:22:06.179Z,5.10
2022-08-17T05:24:42.618Z,5.88
2022-08-17T05:27:19.162Z,9.13
2022-08-17T05:29:46.597Z,7.45
2022-08-17T05:32:39.221Z,7.05
2022-08-17T05:35:01.332Z,6.53
2022-08-17T05:37:28.755Z,6.07
2022-08-17T05:39:56.082Z,5.38
2022-08-17T05:42:24.107Z,4.93
2022-08-17T05:44:51.405Z,4.82
2022-08-17T05:47:18.651Z,4.30
2022-08-17T05:49:49.091Z,4.53
2022-08-17T05:52:30.172Z,4.38
2022-08-17T05:55:25.268Z,4.60
2022-08-17T05:57:59.869Z,4.75
2022-08-17T06:00:52.063Z,4.55
2022-08-17T06:03:28.279Z,4.78
2022-08-17T06:06:10.841Z,4.47
2022-08-17T06:08:40.718Z,4.43
2022-08-17T06:11:22.765Z,4.53
2022-08-17T06:14:18.317Z,5.30
2022-08-17T06:16:50.801Z,5.40
2022-08-17T06:19:23.827Z,5.10
2022-08-17T06:21:54.215Z,5.47
2022-08-17T06:24:24.296Z,7.20
2022-08-17T06:26:52.739Z,6.70
2022-08-17T06:29:44.017Z,7.30
2022-08-17T06:32:12.851Z,9.27
2022-08-17T06:34:42.184Z,8.70
2022-08-17T06:37:31.195Z,9.90
2022-08-17T06:40:10.910Z,9.18
2022-08-17T06:43:00.849Z,8.43
2022-08-17T06:45:41.904Z,9.02
2022-08-17T06:48:48.420Z,9.18
2022-08-17T06:51:27.802Z,11.23
2022-08-17T06:54:06.473Z,9.45
2022-08-17T06:56:54.277Z,10.85
2022-08-17T06:59:53.210Z,8.18
2022-08-17T07:02:52.249Z,13.98
2022-08-17T07:05:21.801Z,11.60
2022-08-17T07:08:04.602Z,11.40
2022-08-17T07:10:42.945Z,10.77
2022-08-17T07:13:43.279Z,10.63
2022-08-17T07:16:41.124Z,8.95
2022-08-17T07:19:10.956Z,11.43
2022-08-17T07:21:51.811Z,10.63
2022-08-17T07:24:33.544Z,9.45
2022-08-17T07:27:11.794Z,11.05
2022-08-17T07:29:48.024Z,10.55
2022-08-17T07:32:20.268Z,11.32
2022-08-17T07:35:00.819Z,10.90
2022-08-17T07:37:28.155Z,10.73
2022-08-17T07:40:14.920Z,11.93
2022-08-17T07:42:46.553Z,11.27
2022-08-17T07:45:35.047Z,11.20
2022-08-17T07:48:20.366Z,9.77
2022-08-17T07:50:49.703Z,11.60
2022-08-17T07:53:25.994Z,8.68
2022-08-17T07:55:53.907Z,8.40
2022-08-17T07:58:23.981Z,8.73
2022-08-17T08:01:08.284Z,9.75
2022-08-17T08:03:42.887Z,9.30
2022-08-17T08:06:23.189Z,8.73
2022-08-17T08:08:54.796Z,8.00
2022-08-17T08:11:32.980Z,7.18
2022-08-17T08:14:29.325Z,7.82
2022-08-17T08:16:59.108Z,7.68
2022-08-17T08:19:28.358Z,8.75
2022-08-17T08:22:04.537Z,9.18
2022-08-17T08:24:52.229Z,9.20
2022-08-17T08:27:27.688Z,8.20
2022-08-17T08:30:18.269Z,8.55
2022-08-17T08:33:21.212Z,8.38
2022-08-17T08:35:53.636Z,8.33
2022-08-17T08:38:53.731Z,9.95
2022-08-17T08:41:24.086Z,7.25
2022-08-17T08:44:03.709Z,7.60
2022-08-17T08:46:39.520Z,6.55
2022-08-17T08:50:01.230Z,6.68
2022-08-17T08:52:31.062Z,8.20
2022-08-17T08:55:10.246Z,7.88
2022-08-17T08:57:45.178Z,5.93
2022-08-17T09:00:21.601Z,6.10
2022-08-17T09:03:06.168Z,5.90
2022-08-17T09:05:45.468Z,5.60
2022-08-17T09:08:40.256Z,6.00
2022-08-17T09:11:28.396Z,6.18
2022-08-17T09:14:21.534Z,5.78
2022-08-17T09:17:00.484Z,6.40
2022-08-17T09:19:53.796Z,6.40
2022-08-17T09:25:13.614Z,5.38
2022-08-17T09:27:57.265Z,6.03
2022-08-17T09:30:43.360Z,6.38
2022-08-17T09:33:15.250Z,5.28
2022-08-17T09:35:48.100Z,5.65
2022-08-17T09:38:41.667Z,5.35
2022-08-17T09:41:49.403Z,5.45
2022-08-17T09:44:30.991Z,6.47
2022-08-17T09:47:14.469Z,5.53
2022-08-17T09:49:49.248Z,4.50
2022-08-17T09:52:21.790Z,4.97
2022-08-17T09:54:53.518Z,4.93
2022-08-17T09:57:32.156Z,5.55
2022-08-17T10:00:16.044Z,6.00
2022-08-17T10:02:53.465Z,4.65
2022-08-17T10:05:39.981Z,6.53
2022-08-17T10:08:22.917Z,4.70
2022-08-17T10:10:56.516Z,5.30
2022-08-17T10:13:53.429Z,5.90
2022-08-17T10:16:44.899Z,4.75
2022-08-17T10:19:15.169Z,4.97
2022-08-17T10:22:14.751Z,4.80
2022-08-17T10:25:22.236Z,4.47
2022-08-17T10:27:56.611Z,5.05
2022-08-17T10:30:28.932Z,4.65
2022-08-17T10:33:06.789Z,4.70
2022-08-17T10:36:10.890Z,5.18
2022-08-17T10:38:59.468Z,4.32
2022-08-17T10:41:30.966Z,4.97
2022-08-17T10:44:38.548Z,4.40
2022-08-17T10:47:11.669Z,4.97
2022-08-17T10:49:47.939Z,5.22
2022-08-17T10:52:41.453Z,5.03
2022-08-17T10:55:17.812Z,4.55
2022-08-17T10:57:50.223Z,4.53
2022-08-17T11:00:28.460Z,4.75
2022-08-17T11:02:57.548Z,4.63
2022-08-17T11:05:50.347Z,4.70
2022-08-17T11:08:33.749Z,4.00
2022-08-17T11:11:35.859Z,4.78
2022-08-17T11:14:18.849Z,5.47
2022-08-17T11:17:23.460Z,4.30
2022-08-17T11:20:21.056Z,5.30
2022-08-17T11:23:03.448Z,5.38
2022-08-17T11:25:40.813Z,4.78
2022-08-17T11:28:22.053Z,5.03
2022-08-17T11:30:53.888Z,5.28
2022-08-17T11:33:30.401Z,4.63
2022-08-17T11:36:20.035Z,5.75
2022-08-17T11:39:19.236Z,4.93
2022-08-17T11:42:05.887Z,4.28
2022-08-17T11:44:53.327Z,4.60
2022-08-17T11:48:23.786Z,4.63
2022-08-17T11:51:18.563Z,4.80
2022-08-17T11:53:45.832Z,4.90
2022-08-17T11:56:31.796Z,4.32
2022-08-17T11:59:00.768Z,4.88
2022-08-17T12:01:29.068Z,4.47
2022-08-17T12:04:25.929Z,4.25
2022-08-17T12:06:56.947Z,4.72
2022-08-17T12:09:29.852Z,4.15
2022-08-17T12:12:14.218Z,4.93
2022-08-17T12:15:09.546Z,4.20
2022-08-17T12:17:40.972Z,5.38
2022-08-17T12:20:38.700Z,4.45
2022-08-17T12:23:24.255Z,5.18
2022-08-17T12:26:05.099Z,4.65
2022-08-17T12:28:36.420Z,4.63
2022-08-17T12:31:07.712Z,4.57
2022-08-17T12:33:39.955Z,4.55
2022-08-17T12:36:08.939Z,4.85
2022-08-17T12:38:38.174Z,5.43
2022-08-17T12:41:26.334Z,4.70
2022-08-17T12:44:14.940Z,4.50
2022-08-17T12:46:54.467Z,4.72
2022-08-17T12:49:29.840Z,4.53
2022-08-17T12:52:05.768Z,4.50
2022-08-17T12:54:42.007Z,5.10
2022-08-17T12:57:14.556Z,4.43
2022-08-17T13:02:31.231Z,4.15
2022-08-17T13:05:01.461Z,4.78
2022-08-17T13:07:36.742Z,4.13
2022-08-17T13:10:04.540Z,4.38
2022-08-17T13:12:35.461Z,4.88
2022-08-17T13:15:03.003Z,5.05
2022-08-17T13:17:34.761Z,3.53
2022-08-17T13:20:06.124Z,4.03
2022-08-17T13:22:33.637Z,4.85
2022-08-17T13:25:07.418Z,4.13
2022-08-17T13:27:34.821Z,4.30
2022-08-17T13:30:11.601Z,4.88
2022-08-17T13:32:46.347Z,4.78
2022-08-17T13:35:39.989Z,3.72
2022-08-17T13:38:14.529Z,4.38
2022-08-17T13:40:43.801Z,4.40
2022-08-17T13:43:11.953Z,5.20
2022-08-17T13:45:50.774Z,4.35
2022-08-17T13:48:29.510Z,4.78
2022-08-17T13:50:56.799Z,4.40
2022-08-17T13:53:26.769Z,4.57
2022-08-17T13:55:58.533Z,4.40
2022-08-17T13:58:32.088Z,4.28
2022-08-17T14:01:35.918Z,4.60
2022-08-17T14:04:10.104Z,4.50
2022-08-17T14:06:52.275Z,4.00
2022-08-17T14:09:24.318Z,5.40
2022-08-17T14:11:54.120Z,3.85
2022-08-17T14:14:23.288Z,3.40
2022-08-17T14:16:51.961Z,3.85
2022-08-17T14:19:24.284Z,3.83
2022-08-17T14:21:52.284Z,4.03
2022-08-17T14:24:26.479Z,3.83
2022-08-17T14:26:54.005Z,3.85
2022-08-17T14:29:23.808Z,3.95
2022-08-17T14:31:54.227Z,4.07
2022-08-17T14:34:24.343Z,3.83
2022-08-17T14:36:52.758Z,3.58
2022-08-17T14:39:20.608Z,3.40
2022-08-17T14:41:48.926Z,3.60
2022-08-17T14:44:16.298Z,3.80
2022-08-17T14:46:44.933Z,4.25
2022-08-17T14:49:13.432Z,4.07
2022-08-17T14:51:43.589Z,3.97
2022-08-17T14:54:33.422Z,4.40
2022-08-17T14:57:22.566Z,4.63
2022-08-17T14:59:54.942Z,4.80
2022-08-17T15:02:31.046Z,4.75
2022-08-17T15:05:03.206Z,4.65
2022-08-17T15:07:31.393Z,4.70
2022-08-17T15:10:01.616Z,5.63
2022-08-17T15:12:34.561Z,3.60
2022-08-17T15:15:06.294Z,4.65
2022-08-17T15:17:44.518Z,4.17
2022-08-17T15:20:22.979Z,4.60
2022-08-17T15:22:50.603Z,5.10
2022-08-17T15:25:19.352Z,4.65
2022-08-17T15:27:47.410Z,4.18
2022-08-17T15:30:15.814Z,4.68
2022-08-17T15:32:50.779Z,4.45
2022-08-17T15:35:26.982Z,5.15
2022-08-17T15:37:54.994Z,4.30
2022-08-17T15:40:22.263Z,5.05
2022-08-17T15:42:51.112Z,4.20
2022-08-17T15:45:23.037Z,5.00
2022-08-17T15:47:52.054Z,4.57
2022-08-17T15:50:19.714Z,3.80
2022-08-17T15:52:47.601Z,4.15
2022-08-17T15:55:15.638Z,3.92
2022-08-17T15:57:43.000Z,4.00
2022-08-17T16:00:11.105Z,4.25
2022-08-17T16:03:45.127Z,4.13
2022-08-17T16:05:31.076Z,3.88
2022-08-17T16:07:59.759Z,4.57
2022-08-17T16:10:35.476Z,4.75
2022-08-17T16:13:04.047Z,4.20
2022-08-17T16:15:32.027Z,4.68
2022-08-17T16:17:59.765Z,3.92
2022-08-17T16:20:27.616Z,3.55
2022-08-17T16:22:55.252Z,3.83
2022-08-17T16:25:38.401Z,3.92
2022-08-17T16:28:16.227Z,4.25
2022-08-17T16:30:43.962Z,4.03
2022-08-17T16:33:11.654Z,4.38
2022-08-17T16:35:39.166Z,4.07
2022-08-17T16:38:07.260Z,3.50
2022-08-17T16:40:36.267Z,4.47
2022-08-17T16:43:09.186Z,6.90
2022-08-17T16:45:40.549Z,5.00
2022-08-17T16:48:09.383Z,5.30
2022-08-17T16:50:37.517Z,4.65
2022-08-17T16:53:10.688Z,4.47
2022-08-17T16:55:38.612Z,4.57
2022-08-17T16:58:06.909Z,4.55
2022-08-17T17:00:35.260Z,5.93
2022-08-17T17:03:19.355Z,4.57
2022-08-17T17:06:24.479Z,4.20
2022-08-17T17:09:07.989Z,4.65
2022-08-17T17:11:48.188Z,5.47
2022-08-17T17:14:29.539Z,4.65
2022-08-17T17:16:57.727Z,4.63
2022-08-17T17:19:37.237Z,5.65
2022-08-17T17:22:14.116Z,5.90
2022-08-17T17:25:12.209Z,5.18
2022-08-17T17:27:58.864Z,4.85
2022-08-17T17:30:58.487Z,5.15
2022-08-17T17:33:37.039Z,3.85
2022-08-17T17:36:25.712Z,3.67
2022-08-17T17:38:59.291Z,2.95
2022-08-17T17:41:32.820Z,4.25
2022-08-17T17:44:12.169Z,4.65
2022-08-17T17:46:43.327Z,4.90
2022-08-17T17:49:14.081Z,3.88
2022-08-17T17:52:08.550Z,4.38
2022-08-17T17:55:09.671Z,4.18
2022-08-17T17:58:00.718Z,4.63
2022-08-17T18:01:01.622Z,4.30
2022-08-17T18:03:50.679Z,4.00
2022-08-17T18:06:33.179Z,3.13
2022-08-17T18:09:19.234Z,2.70
2022-08-17T18:12:02.561Z,3.33
2022-08-17T18:15:00.195Z,3.55
2022-08-17T18:17:29.873Z,2.38
2022-08-17T18:19:57.438Z,2.30
2022-08-17T18:22:25.966Z,2.95
2022-08-17T18:24:57.855Z,3.30
2022-08-17T18:27:34.552Z,4.20
2022-08-17T18:30:26.075Z,4.28
2022-08-17T18:32:53.487Z,4.10
2022-08-17T18:35:22.215Z,3.85
2022-08-17T18:37:52.606Z,3.50
2022-08-17T18:40:20.065Z,3.40
2022-08-17T18:43:03.034Z,3.30
2022-08-17T18:45:33.474Z,2.67
2022-08-17T18:48:01.725Z,2.72
2022-08-17T18:50:39.522Z,3.08
2022-08-17T18:53:26.736Z,3.47
2022-08-17T18:56:26.858Z,2.55
2022-08-17T18:59:01.270Z,2.75
2022-08-17T19:01:52.403Z,2.40
2022-08-17T19:04:35.588Z,2.60
2022-08-17T19:07:23.752Z,2.03
2022-08-17T19:10:14.135Z,2.05
2022-08-17T19:13:24.334Z,1.95
2022-08-17T19:16:15.322Z,1.67
2022-08-17T19:18:48.684Z,2.25
2022-08-17T19:21:25.533Z,1.67
2022-08-17T19:24:19.914Z,1.45
2022-08-17T19:26:59.459Z,1.48
2022-08-17T19:29:39.075Z,1.25
2022-08-17T19:32:08.956Z,1.38
2022-08-17T19:34:38.170Z,1.17
2022-08-17T19:37:25.430Z,1.23
2022-08-17T19:40:24.429Z,1.58
2022-08-17T19:43:12.225Z,1.10
2022-08-17T19:45:45.513Z,1.33
2022-08-17T19:48:35.618Z,1.83
2022-08-17T19:51:38.773Z,2.10
2022-08-17T19:54:20.985Z,1.40
2022-08-17T19:57:06.172Z,1.77
2022-08-17T19:59:49.391Z,1.75
2022-08-17T20:02:22.479Z,1.80
2022-08-17T20:07:22.320Z,1.63
2022-08-17T20:10:37.270Z,1.90
2022-08-17T20:13:09.891Z,1.98
2022-08-17T20:15:41.837Z,1.77
2022-08-17T20:18:24.157Z,1.90
2022-08-17T20:21:02.873Z,1.88
2022-08-17T20:23:38.969Z,1.75
2022-08-17T20:26:38.317Z,1.60
2022-08-17T20:29:37.776Z,1.75
2022-08-17T20:32:18.881Z,1.92
2022-08-17T20:34:47.788Z,1.17
2022-08-17T20:37:15.204Z,1.33
2022-08-17T20:40:04.420Z,1.80
2022-08-17T20:42:33.865Z,1.70
2022-08-17T20:45:26.119Z,1.70
2022-08-17T20:48:30.491Z,2.38
2022-08-17T20:50:56.980Z,1.92
2022-08-17T20:53:54.762Z,1.80
2022-08-17T20:56:43.555Z,2.58
2022-08-17T20:59:25.882Z,2.63
2022-08-17T21:02:18.814Z,2.10
2022-08-17T21:04:56.305Z,2.05
2022-08-17T21:07:23.535Z,2.85
2022-08-17T21:09:51.474Z,2.63
2022-08-17T21:12:50.223Z,2.78
2022-08-17T21:15:39.424Z,2.55
2022-08-17T21:18:12.977Z,4.03
2022-08-17T21:23:37.477Z,2.10
2022-08-17T21:26:30.605Z,3.15
2022-08-17T21:29:29.814Z,2.53
2022-08-17T21:32:01.792Z,2.30
2022-08-17T21:34:38.085Z,2.70
2022-08-17T21:37:20.496Z,2.67
2022-08-17T21:39:54.754Z,2.50
2022-08-17T21:42:31.659Z,2.40
2022-08-17T21:45:29.643Z,2.55
2022-08-17T21:48:21.338Z,2.47
2022-08-17T21:51:12.062Z,2.53
2022-08-17T21:53:42.231Z,1.95
2022-08-17T21:56:11.939Z,2.67
2022-08-17T21:58:48.314Z,2.20
2022-08-17T22:01:27.261Z,2.30
2022-08-17T22:04:25.403Z,3.05
2022-08-17T22:06:57.441Z,2.83
2022-08-17T22:09:32.458Z,3.55
2022-08-17T22:12:11.148Z,2.63
2022-08-17T22:14:53.190Z,2.45
2022-08-17T22:17:34.343Z,2.65
2022-08-17T22:20:10.451Z,2.78
2022-08-17T22:23:19.335Z,2.42
2022-08-17T22:26:02.599Z,3.33
2022-08-17T22:28:49.883Z,2.30
2022-08-17T22:31:26.834Z,2.55
2022-08-17T22:34:00.135Z,2.20
2022-08-17T22:36:45.939Z,2.78
2022-08-17T22:39:13.381Z,2.47
2022-08-17T22:41:57.160Z,2.50
2022-08-17T22:44:34.015Z,2.08
2022-08-17T22:47:11.455Z,2.97
2022-08-17T22:49:57.820Z,2.72
2022-08-17T22:53:00.357Z,2.72
2022-08-17T22:55:49.750Z,2.65
2022-08-17T22:58:38.625Z,2.10
2022-08-17T23:01:35.544Z,3.00
2022-08-17T23:04:06.353Z,2.67
2022-08-17T23:06:35.174Z,2.58
2022-08-17T23:09:05.811Z,2.60
2022-08-17T23:11:50.071Z,2.60
2022-08-17T23:14:20.176Z,2.80
2022-08-17T23:16:50.145Z,2.30
2022-08-17T23:19:20.477Z,2.50
2022-08-17T23:21:49.168Z,2.00
2022-08-17T23:24:29.184Z,2.28
2022-08-17T23:26:58.137Z,2.40
2022-08-17T23:29:29.197Z,3.20
2022-08-17T23:31:59.781Z,2.47
2022-08-17T23:34:28.395Z,2.58
2022-08-17T23:36:55.887Z,2.50
2022-08-17T23:39:24.688Z,2.53
2022-08-17T23:41:57.960Z,3.23
2022-08-17T23:44:26.108Z,1.92
2022-08-17T23:46:54.486Z,2.50
2022-08-17T23:49:21.770Z,2.30
2022-08-17T23:51:49.228Z,2.13
2022-08-17T23:54:21.691Z,2.25
2022-08-17T23:56:49.090Z,2.50
2022-08-17T23:59:19.855Z,1.90
